createdAt,value
2023-04-28T00:02:19.896Z,100129.16
2023-04-28T00:05:23.288Z,100124.47
2023-04-28T00:08:27.130Z,100135.63
2023-04-28T00:11:28.853Z,100139.41
2023-04-28T00:14:30.910Z,100141.03
2023-04-28T00:17:32.862Z,100136.72
2023-04-28T00:20:35.913Z,100136.97
2023-04-28T00:23:37.616Z,100140.47
2023-04-28T00:26:39.473Z,100118.91
2023-04-28T00:29:41.485Z,100113.94
2023-04-28T00:32:43.226Z,100103.41
2023-04-28T00:35:46.709Z,100100.28
2023-04-28T00:38:48.403Z,100078.50
2023-04-28T00:41:50.106Z,100068.88
2023-04-28T00:44:52.017Z,100064.34
2023-04-28T00:47:54.914Z,100062.94
2023-04-28T00:50:58.144Z,100068.78
2023-04-28T00:54:00.136Z,100049.53
2023-04-28T00:57:05.204Z,100056.13
2023-04-28T01:00:09.998Z,100038.06
2023-04-28T01:03:14.827Z,100015.88
2023-04-28T01:06:18.581Z,100019.97
2023-04-28T01:09:20.696Z,100005.66
2023-04-28T01:12:24.164Z,99999.09
2023-04-28T01:15:30.037Z,99999.78
2023-04-28T01:18:32.537Z,100000.69
2023-04-28T01:21:35.835Z,100000.00
2023-04-28T01:24:51.419Z,99995.44
2023-04-28T01:27:53.614Z,99990.25
2023-04-28T01:30:56.409Z,99991.06
2023-04-28T01:33:58.506Z,99984.63
2023-04-28T01:37:00.456Z,99987.59
2023-04-28T01:40:04.377Z,99993.13
2023-04-28T01:43:07.130Z,99987.94
2023-04-28T01:46:09.145Z,99983.25
2023-04-28T01:49:11.357Z,99990.91
2023-04-28T01:52:13.026Z,99992.91
2023-04-28T01:55:34.853Z,99994.72
2023-04-28T01:58:36.666Z,99988.53
2023-04-28T02:01:38.536Z,99986.78
2023-04-28T02:04:40.813Z,99996.69
2023-04-28T02:07:43.210Z,100002.25
2023-04-28T02:10:46.847Z,99993.94
2023-04-28T02:13:48.923Z,99993.97
2023-04-28T02:16:50.620Z,100010.97
2023-04-28T02:19:54.985Z,100005.41
2023-04-28T02:22:57.730Z,100002.09
2023-04-28T02:26:04.794Z,100011.09
2023-04-28T02:29:06.706Z,100010.44
2023-04-28T02:32:08.642Z,100016.25
2023-04-28T02:35:10.527Z,100016.00
2023-04-28T02:38:12.300Z,100012.34
2023-04-28T02:41:16.144Z,100021.03
2023-04-28T02:44:19.155Z,100027.75
2023-04-28T02:47:21.276Z,100022.06
2023-04-28T02:50:23.417Z,100020.63
2023-04-28T02:53:25.419Z,100021.81
2023-04-28T02:56:29.989Z,100035.63
2023-04-28T02:59:32.289Z,100029.47
2023-04-28T03:02:34.007Z,100023.31
2023-04-28T03:05:36.048Z,100010.38
2023-04-28T03:08:37.942Z,100000.66
2023-04-28T03:11:41.362Z,100006.06
2023-04-28T03:14:43.648Z,99992.00
2023-04-28T03:17:45.720Z,99989.75
2023-04-28T03:20:47.606Z,99990.56
2023-04-28T03:23:49.279Z,99998.81
2023-04-28T03:26:52.660Z,99989.09
2023-04-28T03:29:55.058Z,99984.34
2023-04-28T03:32:59.350Z,99978.59
2023-04-28T03:36:01.140Z,99966.22
2023-04-28T03:39:03.122Z,99974.75
2023-04-28T03:42:08.006Z,99972.00
2023-04-28T03:45:41.910Z,99958.09
2023-04-28T03:48:47.204Z,99951.22
2023-04-28T03:51:51.165Z,99957.00
2023-04-28T03:54:53.932Z,99948.63
2023-04-28T03:57:57.065Z,99934.53
2023-04-28T04:01:01.489Z,99928.22
2023-04-28T04:04:03.731Z,99919.66
2023-04-28T04:07:06.366Z,99922.13
2023-04-28T04:10:09.315Z,99916.66
2023-04-28T04:13:14.161Z,99910.16
2023-04-28T04:16:18.711Z,99912.78
2023-04-28T04:19:20.620Z,99919.59
2023-04-28T04:22:25.225Z,99921.09
2023-04-28T04:25:27.749Z,99920.25
2023-04-28T04:28:31.587Z,99923.19
2023-04-28T04:31:35.236Z,99917.25
2023-04-28T04:34:37.130Z,99919.06
2023-04-28T04:37:39.837Z,99925.38
2023-04-28T04:44:04.483Z,99939.03
2023-04-28T04:47:29.146Z,99939.28
2023-04-28T04:50:44.438Z,99933.66
2023-04-28T04:53:46.571Z,99946.81
2023-04-28T04:56:48.917Z,99938.38
2023-04-28T04:59:58.772Z,99931.72
2023-04-28T05:03:01.546Z,99935.41
2023-04-28T05:06:04.181Z,99928.19
2023-04-28T05:09:19.401Z,99926.06
2023-04-28T05:12:21.303Z,99917.78
2023-04-28T05:15:25.524Z,99915.66
2023-04-28T05:18:47.810Z,99925.38
2023-04-28T05:21:52.689Z,99931.81
2023-04-28T05:24:54.886Z,99929.72
2023-04-28T05:27:56.822Z,99932.22
2023-04-28T05:31:00.034Z,99925.09
2023-04-28T05:34:02.795Z,99924.97
2023-04-28T05:37:04.594Z,99918.38
2023-04-28T05:40:09.204Z,99924.69
2023-04-28T05:43:11.321Z,99926.78
2023-04-28T05:46:28.465Z,99921.09
2023-04-28T05:49:34.832Z,99924.03
2023-04-28T05:52:39.275Z,99924.69
2023-04-28T05:55:41.464Z,99932.31
2023-04-28T05:58:48.059Z,99933.78
2023-04-28T06:01:51.515Z,99946.03
2023-04-28T06:04:53.501Z,99944.06
2023-04-28T06:07:56.394Z,99946.28
2023-04-28T06:10:58.431Z,99951.97
2023-04-28T06:14:00.330Z,99952.63
2023-04-28T06:17:03.745Z,99952.91
2023-04-28T06:20:06.733Z,99956.84
2023-04-28T06:23:09.400Z,99962.91
2023-04-28T06:26:18.472Z,99958.81
2023-04-28T06:29:20.897Z,99948.25
2023-04-28T06:32:24.035Z,99955.63
2023-04-28T06:35:27.086Z,99953.13
2023-04-28T06:38:30.053Z,99953.50
2023-04-28T06:41:32.114Z,99956.91
2023-04-28T06:44:36.319Z,99966.28
2023-04-28T06:47:40.952Z,99949.47
2023-04-28T06:50:44.569Z,99953.91
2023-04-28T06:53:46.462Z,99958.28
2023-04-28T06:56:48.158Z,99961.81
2023-04-28T06:59:49.808Z,99957.72
2023-04-28T07:02:53.134Z,99961.03
2023-04-28T07:05:55.342Z,99947.44
2023-04-28T07:08:57.102Z,99950.19
2023-04-28T07:11:59.571Z,99957.97
2023-04-28T07:15:01.425Z,99944.31
2023-04-28T07:18:06.070Z,99953.25
2023-04-28T07:21:07.964Z,99959.81
2023-04-28T07:24:11.166Z,99960.59
2023-04-28T07:27:13.016Z,99956.63
2023-04-28T07:30:26.524Z,99951.19
2023-04-28T07:33:31.417Z,99959.28
2023-04-28T07:36:33.389Z,99958.59
2023-04-28T07:39:35.459Z,99956.44
2023-04-28T07:42:37.438Z,99935.06
2023-04-28T07:45:40.365Z,99928.28
2023-04-28T07:48:43.659Z,99927.59
2023-04-28T07:51:45.589Z,99924.06
2023-04-28T07:54:47.309Z,99934.47
2023-04-28T07:57:49.611Z,99936.25
2023-04-28T08:00:54.565Z,99935.28
2023-04-28T08:03:58.035Z,55916.78
2023-04-28T08:06:59.846Z,55916.78
2023-04-28T08:13:08.784Z,99935.56
2023-04-28T08:16:10.592Z,99933.19
2023-04-28T08:19:12.643Z,99921.13
2023-04-28T08:22:14.882Z,99943.97
2023-04-28T08:25:18.445Z,99945.47
2023-04-28T08:28:21.652Z,99948.41
2023-04-28T08:31:23.967Z,99941.63
2023-04-28T08:34:25.744Z,99938.34
2023-04-28T08:37:27.919Z,99943.00
2023-04-28T08:40:31.412Z,99952.66
2023-04-28T08:43:35.121Z,99945.66
2023-04-28T08:46:42.187Z,99940.97
2023-04-28T08:49:45.106Z,99957.78
2023-04-28T08:52:47.725Z,99952.56
2023-04-28T08:55:53.347Z,99940.59
2023-04-28T08:58:56.777Z,99948.78
2023-04-28T09:02:01.043Z,99937.66
2023-04-28T09:05:04.805Z,99932.03
2023-04-28T09:08:06.843Z,99942.00
2023-04-28T09:11:09.950Z,99947.88
2023-04-28T09:14:13.784Z,99956.59
2023-04-28T09:17:16.667Z,99960.03
2023-04-28T09:20:21.835Z,99953.84
2023-04-28T09:23:23.550Z,99960.16
2023-04-28T09:26:25.704Z,99959.81
2023-04-28T09:29:30.157Z,99963.25
2023-04-28T09:32:32.422Z,99962.66
2023-04-28T09:35:40.974Z,99963.25
2023-04-28T09:38:45.344Z,99960.94
2023-04-28T09:41:47.372Z,99965.22
2023-04-28T09:44:54.380Z,99960.00
2023-04-28T09:48:10.856Z,99969.56
2023-04-28T09:51:22.589Z,99970.63
2023-04-28T09:54:28.744Z,99962.59
2023-04-28T09:57:35.001Z,99967.38
2023-04-28T10:00:40.325Z,99964.41
2023-04-28T10:03:44.599Z,99970.25
2023-04-28T10:06:47.871Z,99971.06
2023-04-28T10:09:50.905Z,99970.97
2023-04-28T10:12:52.806Z,99964.41
2023-04-28T10:15:58.234Z,99958.66
2023-04-28T10:19:03.727Z,99964.53
2023-04-28T10:22:24.781Z,99954.75
2023-04-28T10:25:28.061Z,99956.81
2023-04-28T10:28:29.985Z,99950.66
2023-04-28T10:31:34.883Z,99960.09
2023-04-28T10:34:36.626Z,99955.88
2023-04-28T10:38:06.526Z,99962.63
2023-04-28T10:41:34.436Z,99952.53
2023-04-28T10:44:42.810Z,99948.41
2023-04-28T10:48:07.081Z,99946.44
2023-04-28T10:51:39.434Z,99950.00
2023-04-28T10:54:41.150Z,55916.78
2023-04-28T10:57:44.229Z,55916.78
2023-04-28T11:00:48.231Z,55916.78
2023-04-28T11:04:07.793Z,55916.78
2023-04-28T11:07:14.634Z,55916.78
2023-04-28T11:13:34.402Z,99944.13
2023-04-28T11:16:49.598Z,99948.66
2023-04-28T11:19:53.698Z,99939.84
2023-04-28T11:22:55.992Z,99935.59
2023-04-28T11:26:00.662Z,99943.88
2023-04-28T11:29:04.289Z,99948.41
2023-04-28T11:32:07.963Z,99946.53
2023-04-28T11:35:10.117Z,99955.50
2023-04-28T11:38:11.856Z,99962.06
2023-04-28T11:41:13.799Z,99947.63
2023-04-28T11:44:19.337Z,99939.31
2023-04-28T11:47:31.308Z,99938.16
2023-04-28T11:50:37.122Z,99951.09
2023-04-28T11:53:42.300Z,99943.88
2023-04-28T11:56:45.174Z,99942.34
2023-04-28T11:59:49.436Z,99947.06
2023-04-28T12:06:17.620Z,99945.75
2023-04-28T12:09:21.691Z,99941.88
2023-04-28T12:12:40.159Z,99937.81
2023-04-28T12:15:49.073Z,99940.13
2023-04-28T12:18:59.920Z,99945.38
2023-04-28T12:22:04.514Z,99944.13
2023-04-28T12:25:07.868Z,99941.75
2023-04-28T12:28:11.025Z,99938.84
2023-04-28T12:31:14.226Z,99938.69
2023-04-28T12:34:16.024Z,99946.03
2023-04-28T12:37:18.320Z,99941.06
2023-04-28T12:40:21.014Z,99949.00
2023-04-28T12:43:23.883Z,99947.22
2023-04-28T12:46:27.035Z,99951.63
2023-04-28T12:49:29.028Z,99952.38
2023-04-28T12:52:33.855Z,99953.75
2023-04-28T12:55:35.733Z,99953.59
2023-04-28T12:58:38.115Z,99945.19
2023-04-28T13:01:41.268Z,99933.75
2023-04-28T13:04:45.449Z,99927.13
2023-04-28T13:07:49.441Z,99924.84
2023-04-28T13:10:51.237Z,99931.38
2023-04-28T13:13:53.467Z,99934.34
2023-04-28T13:16:57.812Z,99936.00
2023-04-28T13:20:01.293Z,99939.66
2023-04-28T13:23:03.492Z,99937.50
2023-04-28T13:26:05.550Z,99937.09
2023-04-28T13:29:10.690Z,99929.75
2023-04-28T13:32:13.922Z,99921.00
2023-04-28T13:35:15.978Z,99921.19
2023-04-28T13:38:19.012Z,99916.09
2023-04-28T13:41:21.203Z,99916.69
2023-04-28T13:44:23.008Z,99923.41
2023-04-28T13:47:27.333Z,99910.13
2023-04-28T13:50:29.132Z,99901.94
2023-04-28T13:53:31.393Z,99903.91
2023-04-28T13:56:33.196Z,99890.47
2023-04-28T13:59:34.942Z,55916.78
2023-04-28T14:02:39.496Z,55916.78
2023-04-28T14:05:48.971Z,55916.78
2023-04-28T14:08:51.915Z,55916.78
2023-04-28T14:12:58.656Z,99904.00
2023-04-28T14:16:01.485Z,99887.78
2023-04-28T14:19:03.315Z,99876.94
2023-04-28T14:22:04.978Z,99873.34
2023-04-28T14:25:07.941Z,99865.88
2023-04-28T14:28:11.686Z,99854.94
2023-04-28T14:31:13.659Z,99861.06
2023-04-28T14:34:15.677Z,99883.84
2023-04-28T14:37:17.684Z,99871.13
2023-04-28T14:40:19.646Z,99875.00
2023-04-28T14:43:23.065Z,99859.22
2023-04-28T14:46:25.267Z,99857.00
2023-04-28T14:49:27.700Z,99855.38
2023-04-28T14:52:32.926Z,99855.59
2023-04-28T14:55:35.069Z,99846.88
2023-04-28T14:58:38.389Z,99842.66
2023-04-28T15:01:40.210Z,99835.47
2023-04-28T15:04:42.550Z,99822.63
2023-04-28T15:07:44.590Z,99816.13
2023-04-28T15:10:46.265Z,99827.53
2023-04-28T15:13:49.404Z,99818.38
2023-04-28T15:16:51.366Z,99809.75
2023-04-28T15:19:53.470Z,99808.72
2023-04-28T15:23:02.773Z,99811.75
2023-04-28T15:26:11.159Z,99811.47
2023-04-28T15:29:14.384Z,99803.16
2023-04-28T15:32:16.255Z,99808.22
2023-04-28T15:35:22.090Z,99802.34
2023-04-28T15:38:24.039Z,99808.69
2023-04-28T15:41:25.934Z,99805.66
2023-04-28T15:44:32.067Z,99802.09
2023-04-28T15:47:33.828Z,99811.78
2023-04-28T15:50:36.433Z,99817.94
2023-04-28T15:53:39.105Z,99803.19
2023-04-28T15:56:41.282Z,99794.59
2023-04-28T15:59:44.705Z,99803.72
2023-04-28T16:02:46.840Z,99797.38
2023-04-28T16:05:48.802Z,99789.28
2023-04-28T16:08:50.561Z,99795.50
2023-04-28T16:11:52.334Z,99800.81
2023-04-28T16:14:56.195Z,99798.56
2023-04-28T16:17:58.015Z,99793.88
2023-04-28T16:20:59.812Z,99795.13
2023-04-28T16:24:02.871Z,99789.78
2023-04-28T16:27:04.690Z,99774.00
2023-04-28T16:30:10.038Z,76545.28
2023-04-28T16:33:11.802Z,55916.78
2023-04-28T16:36:13.493Z,55916.78
2023-04-28T16:39:15.659Z,55916.78
2023-04-28T16:43:00.039Z,99754.56
2023-04-28T16:46:01.816Z,99764.41
2023-04-28T16:49:03.857Z,99778.19
2023-04-28T16:52:06.113Z,99764.47
2023-04-28T16:55:08.630Z,99764.44
2023-04-28T16:58:11.935Z,99781.03
2023-04-28T17:01:13.609Z,99783.06
2023-04-28T17:04:15.934Z,99788.31
2023-04-28T17:07:17.884Z,99788.19
2023-04-28T17:10:22.733Z,99798.34
2023-04-28T17:13:25.962Z,99784.06
2023-04-28T17:16:31.165Z,99764.94
2023-04-28T17:19:33.415Z,99746.06
2023-04-28T17:22:35.477Z,99747.75
2023-04-28T17:25:38.677Z,99760.41
2023-04-28T17:28:43.916Z,99755.41
2023-04-28T17:31:47.228Z,99758.78
2023-04-28T17:34:49.013Z,99746.34
2023-04-28T17:37:50.792Z,99757.66
2023-04-28T17:40:52.612Z,99807.06
2023-04-28T17:43:56.299Z,99823.66
2023-04-28T17:46:58.732Z,99790.88
2023-04-28T17:50:00.634Z,99771.94
2023-04-28T17:54:01.267Z,55916.78
2023-04-28T18:27:57.662Z,99886.44
2023-04-28T18:33:10.361Z,99875.59
2023-04-28T18:36:12.743Z,99878.94
2023-04-28T18:39:15.618Z,99887.97
2023-04-28T18:42:17.373Z,99887.97
2023-04-28T18:45:19.344Z,99887.97
2023-04-28T18:48:25.486Z,99887.97
2023-04-28T18:51:27.786Z,99887.97
2023-04-28T18:55:28.280Z,55916.78
2023-04-28T19:02:44.562Z,99897.03
2023-04-28T19:05:48.195Z,99897.03
2023-04-28T19:08:53.463Z,99897.03
2023-04-28T19:11:55.124Z,55916.78
2023-04-28T19:17:56.252Z,99899.88
2023-04-28T19:21:57.178Z,55916.78
2023-04-28T19:25:58.407Z,55916.78
2023-04-28T19:47:43.917Z,55916.78
2023-04-28T19:50:46.093Z,55916.78
2023-04-28T19:53:48.758Z,55916.78
2023-04-28T19:57:49.068Z,55916.78
2023-04-28T20:02:45.740Z,99964.81
2023-04-28T20:05:47.877Z,55916.78
2023-04-28T20:08:49.780Z,55916.78
2023-04-28T20:11:51.849Z,55916.78
2023-04-28T20:17:48.806Z,99964.19
2023-04-28T20:20:52.484Z,99961.84
2023-04-28T20:26:20.604Z,99965.66
2023-04-28T20:29:22.841Z,99967.97
2023-04-28T20:32:24.837Z,99976.69
2023-04-28T20:35:27.250Z,99966.16
2023-04-28T20:38:31.002Z,99972.94
2023-04-28T20:41:34.626Z,99968.34
2023-04-28T20:44:36.861Z,99967.47
2023-04-28T20:47:39.653Z,99975.78
2023-04-28T20:50:43.021Z,99967.13
2023-04-28T20:53:45.093Z,99969.34
2023-04-28T20:56:50.064Z,99969.19
2023-04-28T20:59:52.239Z,99981.34
2023-04-28T21:02:54.578Z,99973.78
2023-04-28T21:05:56.586Z,99975.06
2023-04-28T21:08:58.537Z,99969.00
2023-04-28T21:12:02.146Z,99973.41
2023-04-28T21:15:04.667Z,99965.56
2023-04-28T21:18:06.533Z,99969.56
2023-04-28T21:21:08.408Z,99963.88
2023-04-28T21:24:10.275Z,99960.56
2023-04-28T21:27:13.980Z,99964.91
2023-04-28T21:30:15.860Z,99963.56
2023-04-28T21:33:17.602Z,99952.38
2023-04-28T21:36:21.169Z,99958.25
2023-04-28T21:39:23.207Z,99963.31
2023-04-28T21:42:28.313Z,99971.03
2023-04-28T21:45:30.109Z,99960.38
2023-04-28T21:48:31.854Z,99959.78
2023-04-28T21:51:34.427Z,99964.69
2023-04-28T21:54:36.284Z,99964.25
2023-04-28T21:57:41.031Z,99954.75
2023-04-28T22:00:43.673Z,99952.25
2023-04-28T22:03:46.664Z,99949.47
2023-04-28T22:06:48.934Z,99958.44
2023-04-28T22:09:51.905Z,99963.16
2023-04-28T22:12:55.219Z,99963.25
2023-04-28T22:15:57.223Z,99966.94
2023-04-28T22:18:59.444Z,99958.69
2023-04-28T22:22:01.468Z,99956.81
2023-04-28T22:25:04.663Z,99964.72
2023-04-28T22:28:08.190Z,99968.19
2023-04-28T22:31:10.047Z,99968.97
2023-04-28T22:34:12.777Z,99973.66
2023-04-28T22:37:14.699Z,99971.03
2023-04-28T22:40:17.630Z,99968.72
2023-04-28T22:43:20.819Z,99973.78
2023-04-28T22:46:23.065Z,99977.81
2023-04-28T22:49:28.513Z,99974.59
2023-04-28T22:52:30.286Z,99974.44
2023-04-28T22:55:32.389Z,99975.28
2023-04-28T22:58:35.880Z,99978.13
2023-04-28T23:01:37.799Z,99981.00
2023-04-28T23:04:39.969Z,99978.81
2023-04-28T23:07:44.289Z,99980.84
2023-04-28T23:10:46.338Z,99973.31
2023-04-28T23:13:49.608Z,99977.34
2023-04-28T23:16:51.383Z,99981.00
2023-04-28T23:19:53.304Z,99988.00
2023-04-28T23:22:57.176Z,99986.97
2023-04-28T23:25:59.458Z,99992.63
2023-04-28T23:29:02.622Z,99994.09
2023-04-28T23:32:05.167Z,99994.66
2023-04-28T23:35:07.519Z,99995.66
2023-04-28T23:38:09.359Z,99992.50
2023-04-28T23:41:11.036Z,99992.50
2023-04-28T23:44:14.148Z,99993.69
2023-04-28T23:47:16.060Z,99997.91
2023-04-28T23:50:18.643Z,99991.63
2023-04-28T23:53:20.950Z,99996.88
2023-04-28T23:56:22.819Z,99997.88
2023-04-28T23:59:27.383Z,100000.88
